createdAt,value
2022-10-07T00:01:06.606Z,102426.22
2022-10-07T00:03:35.232Z,102425.47
2022-10-07T00:06:08.443Z,102429.97
2022-10-07T00:08:39.397Z,102428.41
2022-10-07T00:11:10.880Z,102421.16
2022-10-07T00:13:40.519Z,102427.59
2022-10-07T00:16:10.559Z,102424.13
2022-10-07T00:18:39.077Z,102423.34
2022-10-07T00:21:08.537Z,102421.53
2022-10-07T00:23:37.942Z,102418.88
2022-10-07T00:26:07.518Z,102408.91
2022-10-07T00:28:36.198Z,102415.50
2022-10-07T00:31:06.740Z,102410.88
2022-10-07T00:33:36.769Z,102399.94
2022-10-07T00:36:08.391Z,102403.66
2022-10-07T00:38:39.171Z,102404.63
2022-10-07T00:41:10.892Z,102399.34
2022-10-07T00:43:38.716Z,102395.81
2022-10-07T00:46:09.154Z,102400.31
2022-10-07T00:48:39.182Z,102396.78
2022-10-07T00:51:10.027Z,102395.94
2022-10-07T00:53:42.145Z,102396.91
2022-10-07T00:56:10.685Z,102392.59
2022-10-07T00:58:42.218Z,102394.38
2022-10-07T01:01:11.266Z,102385.44
2022-10-07T01:03:39.589Z,102385.44
2022-10-07T01:06:07.463Z,102374.63
2022-10-07T01:08:35.688Z,102377.47
2022-10-07T01:11:15.130Z,102378.25
2022-10-07T01:13:58.387Z,102378.44
2022-10-07T01:16:33.822Z,102368.53
2022-10-07T01:19:10.953Z,102361.44
2022-10-07T01:21:48.826Z,102368.00
2022-10-07T01:24:33.247Z,102364.47
2022-10-07T01:27:06.884Z,102361.06
2022-10-07T01:29:37.858Z,102363.00
2022-10-07T01:32:13.025Z,102353.91
2022-10-07T01:34:44.127Z,102348.72
2022-10-07T01:37:16.222Z,102344.25
2022-10-07T01:39:49.470Z,102346.31
2022-10-07T01:42:20.693Z,102339.94
2022-10-07T01:44:50.889Z,102341.00
2022-10-07T01:47:18.631Z,102336.63
2022-10-07T01:49:46.726Z,102326.75
2022-10-07T01:52:31.482Z,102326.75
2022-10-07T01:55:15.375Z,102332.31
2022-10-07T01:57:54.088Z,102324.34
2022-10-07T02:00:22.678Z,102320.03
2022-10-07T02:03:18.269Z,102317.38
2022-10-07T02:05:52.874Z,102312.00
2022-10-07T02:08:32.278Z,102303.91
2022-10-07T02:11:23.775Z,102296.94
2022-10-07T02:14:04.541Z,102298.72
2022-10-07T02:16:40.903Z,102290.59
2022-10-07T02:19:15.816Z,102291.56
2022-10-07T02:21:46.830Z,102292.44
2022-10-07T02:24:16.871Z,102295.31
2022-10-07T02:26:47.243Z,102293.44
2022-10-07T02:29:21.359Z,102288.97
2022-10-07T02:31:52.005Z,102283.56
2022-10-07T02:34:24.481Z,102284.47
2022-10-07T02:36:55.993Z,102281.72
2022-10-07T02:39:23.924Z,102273.69
2022-10-07T02:42:03.593Z,102274.47
2022-10-07T02:44:40.958Z,102279.06
2022-10-07T02:47:16.548Z,102270.06
2022-10-07T02:49:47.795Z,102273.78
2022-10-07T02:52:19.144Z,102263.81
2022-10-07T02:54:53.160Z,102263.06
2022-10-07T02:57:24.722Z,102257.69
2022-10-07T02:59:55.771Z,102255.81
2022-10-07T03:02:30.555Z,102255.81
2022-10-07T03:04:58.968Z,102248.69
2022-10-07T03:07:27.825Z,102252.50
2022-10-07T03:09:56.040Z,102246.03
2022-10-07T03:12:23.992Z,102238.03
2022-10-07T03:14:52.224Z,102248.88
2022-10-07T03:17:22.646Z,102246.03
2022-10-07T03:19:50.977Z,102242.41
2022-10-07T03:22:18.762Z,102239.69
2022-10-07T03:24:49.426Z,102236.06
2022-10-07T03:27:18.328Z,102236.94
2022-10-07T03:29:47.350Z,102235.19
2022-10-07T03:32:15.451Z,102232.56
2022-10-07T03:34:44.809Z,102232.66
2022-10-07T03:37:12.655Z,102228.16
2022-10-07T03:39:40.698Z,102224.66
2022-10-07T03:42:09.184Z,102221.25
2022-10-07T03:44:38.166Z,102217.78
2022-10-07T03:47:10.667Z,102226.09
2022-10-07T03:49:39.776Z,102225.31
2022-10-07T03:52:09.150Z,102227.19
2022-10-07T03:54:36.915Z,102222.78
2022-10-07T03:57:27.358Z,102225.63
2022-10-07T03:59:56.092Z,102217.59
2022-10-07T04:02:24.174Z,102221.22
2022-10-07T04:04:52.617Z,102217.72
2022-10-07T04:07:23.339Z,102216.72
2022-10-07T04:09:52.436Z,102208.81
2022-10-07T04:12:20.671Z,102216.16
2022-10-07T04:14:48.630Z,102208.03
2022-10-07T04:17:18.855Z,102212.53
2022-10-07T04:19:47.166Z,102211.88
2022-10-07T04:22:15.398Z,102204.66
2022-10-07T04:25:05.188Z,102206.41
2022-10-07T04:27:50.560Z,102203.94
2022-10-07T04:30:20.196Z,102205.00
2022-10-07T04:32:50.732Z,102208.53
2022-10-07T04:35:22.071Z,102201.41
2022-10-07T04:37:51.444Z,102195.16
2022-10-07T04:40:22.392Z,102185.19
2022-10-07T04:43:08.704Z,102191.75
2022-10-07T04:45:37.604Z,102192.94
2022-10-07T04:48:07.323Z,102187.56
2022-10-07T04:50:38.595Z,102186.69
2022-10-07T04:53:08.981Z,102186.88
2022-10-07T04:55:40.401Z,102186.78
2022-10-07T04:58:09.527Z,102185.97
2022-10-07T05:00:42.646Z,102185.97
2022-10-07T05:03:10.576Z,102177.13
2022-10-07T05:05:42.146Z,102184.34
2022-10-07T05:08:10.488Z,102179.06
2022-10-07T05:10:42.352Z,102176.13
2022-10-07T05:13:12.466Z,102175.34
2022-10-07T05:15:49.115Z,102169.88
2022-10-07T05:18:18.559Z,102181.00
2022-10-07T05:20:47.594Z,102173.69
2022-10-07T05:23:16.692Z,102169.31
2022-10-07T05:25:46.741Z,102173.69
2022-10-07T05:28:16.574Z,102174.78
2022-10-07T05:30:44.447Z,102169.41
2022-10-07T05:33:12.373Z,102161.28
2022-10-07T05:35:46.922Z,102166.66
2022-10-07T05:38:14.678Z,102166.84
2022-10-07T05:40:42.712Z,102165.00
2022-10-07T05:43:12.820Z,102169.50
2022-10-07T05:45:41.048Z,102159.63
2022-10-07T05:48:09.183Z,102160.69
2022-10-07T05:50:39.476Z,102166.94
2022-10-07T05:53:07.299Z,102158.09
2022-10-07T05:55:40.012Z,102158.97
2022-10-07T05:58:08.445Z,102148.13
2022-10-07T06:00:41.804Z,102151.72
2022-10-07T06:03:12.321Z,102149.97
2022-10-07T06:05:40.219Z,102152.72
2022-10-07T06:08:08.009Z,102159.06
2022-10-07T06:10:56.446Z,102155.53
2022-10-07T06:13:24.979Z,102155.63
2022-10-07T06:15:54.569Z,102156.41
2022-10-07T06:18:22.562Z,102145.56
2022-10-07T06:20:56.733Z,102154.47
2022-10-07T06:23:26.613Z,102149.19
2022-10-07T06:25:58.660Z,102144.50
2022-10-07T06:28:33.388Z,102148.91
2022-10-07T06:31:05.366Z,102142.34
2022-10-07T06:33:33.688Z,102143.13
2022-10-07T06:36:04.615Z,102145.25
2022-10-07T06:38:33.267Z,102146.63
2022-10-07T06:41:02.321Z,102143.09
2022-10-07T06:43:34.432Z,102144.72
2022-10-07T06:46:08.959Z,102149.84
2022-10-07T06:48:42.091Z,102147.81
2022-10-07T06:51:11.374Z,102148.22
2022-10-07T06:53:40.485Z,102148.59
2022-10-07T06:56:09.100Z,102153.34
2022-10-07T06:58:38.667Z,102143.63
2022-10-07T07:01:09.134Z,102150.88
2022-10-07T07:03:37.352Z,102151.03
2022-10-07T07:06:07.747Z,102149.00
2022-10-07T07:08:37.044Z,102151.88
2022-10-07T07:11:29.310Z,102145.41
2022-10-07T07:14:00.181Z,102150.00
2022-10-07T07:16:32.999Z,102148.56
2022-10-07T07:19:02.994Z,102151.31
2022-10-07T07:21:30.960Z,102153.19
2022-10-07T07:23:59.575Z,102143.06
2022-10-07T07:26:28.675Z,102139.44
2022-10-07T07:28:59.343Z,102141.28
2022-10-07T07:31:33.793Z,102141.50
2022-10-07T07:34:04.613Z,102140.66
2022-10-07T07:36:34.858Z,102136.31
2022-10-07T07:39:08.511Z,102138.47
2022-10-07T07:41:38.785Z,102130.16
2022-10-07T07:44:11.032Z,102138.25
2022-10-07T07:46:45.009Z,102135.53
2022-10-07T07:49:14.494Z,102136.88
2022-10-07T07:51:44.777Z,102129.03
2022-10-07T07:54:20.187Z,102136.06
2022-10-07T07:56:50.063Z,102133.16
2022-10-07T07:59:20.277Z,102133.03
2022-10-07T08:01:51.326Z,102131.88
2022-10-07T08:04:19.392Z,102131.53
2022-10-07T08:06:47.575Z,102127.91
2022-10-07T08:09:15.606Z,102134.56
2022-10-07T08:11:48.159Z,102123.69
2022-10-07T08:14:18.290Z,102129.47
2022-10-07T08:16:48.588Z,102124.97
2022-10-07T08:19:20.013Z,102120.31
2022-10-07T08:21:47.998Z,102120.44
2022-10-07T08:24:22.813Z,102115.22
2022-10-07T08:26:50.934Z,102108.66
2022-10-07T08:29:18.951Z,102115.06
2022-10-07T08:31:47.414Z,102113.34
2022-10-07T08:34:17.135Z,102111.28
2022-10-07T08:36:47.390Z,102117.56
2022-10-07T08:39:16.153Z,102110.91
2022-10-07T08:41:54.874Z,102104.94
2022-10-07T08:44:29.502Z,102106.72
2022-10-07T08:47:03.181Z,102100.78
2022-10-07T08:49:44.972Z,102105.00
2022-10-07T08:52:28.792Z,102101.09
2022-10-07T08:54:56.813Z,102092.69
2022-10-07T08:57:47.138Z,102095.63
2022-10-07T09:00:19.774Z,102089.81
2022-10-07T09:03:07.451Z,102090.13
2022-10-07T09:05:41.924Z,102084.06
2022-10-07T09:08:15.451Z,102082.47
2022-10-07T09:10:48.621Z,102074.66
2022-10-07T09:13:21.202Z,102076.69
2022-10-07T09:16:08.215Z,102074.41
2022-10-07T09:18:40.250Z,102070.94
2022-10-07T09:21:19.122Z,102063.94
2022-10-07T09:23:48.173Z,102059.59
2022-10-07T09:26:17.368Z,102061.63
2022-10-07T09:28:45.387Z,102059.31
2022-10-07T09:31:16.231Z,102049.09
2022-10-07T09:33:46.727Z,102042.13
2022-10-07T09:36:19.930Z,102035.88
2022-10-07T09:38:49.905Z,102038.03
2022-10-07T09:41:20.772Z,102035.31
2022-10-07T09:44:06.848Z,102038.94
2022-10-07T09:46:46.790Z,102036.44
2022-10-07T09:49:41.816Z,102029.56
2022-10-07T09:52:20.085Z,102028.38
2022-10-07T09:54:49.750Z,102032.41
2022-10-07T09:57:27.284Z,102030.50
2022-10-07T10:00:17.633Z,102029.16
2022-10-07T10:02:49.710Z,102028.41
2022-10-07T10:05:24.815Z,102020.38
2022-10-07T10:08:01.417Z,102025.72
2022-10-07T10:10:32.189Z,102015.22
2022-10-07T10:13:05.452Z,102019.97
2022-10-07T10:15:43.172Z,102006.22
2022-10-07T10:18:33.773Z,102000.41
2022-10-07T10:21:27.291Z,101993.34
2022-10-07T10:23:58.694Z,101995.91
2022-10-07T10:26:51.955Z,101991.31
2022-10-07T10:29:45.376Z,101979.59
2022-10-07T10:32:45.278Z,101986.09
2022-10-07T10:35:19.335Z,101969.72
2022-10-07T10:38:10.988Z,101965.13
2022-10-07T10:40:43.127Z,101968.09
2022-10-07T10:43:28.707Z,101961.06
2022-10-07T10:46:20.655Z,101955.75
2022-10-07T10:48:54.731Z,101956.44
2022-10-07T10:51:39.582Z,101949.03
2022-10-07T10:54:18.977Z,101943.88
2022-10-07T10:56:55.741Z,101942.34
2022-10-07T10:59:43.108Z,101928.16
2022-10-07T11:02:41.525Z,101926.78
2022-10-07T11:05:16.581Z,101924.22
2022-10-07T11:07:49.236Z,101919.06
2022-10-07T11:10:22.297Z,101919.63
2022-10-07T11:12:57.168Z,101912.72
2022-10-07T11:15:29.867Z,101908.56
2022-10-07T11:18:00.223Z,101896.78
2022-10-07T11:20:33.913Z,101904.59
2022-10-07T11:23:08.600Z,101897.31
2022-10-07T11:25:43.374Z,101881.22
2022-10-07T11:28:20.564Z,101878.09
2022-10-07T11:30:55.922Z,101883.31
2022-10-07T11:33:28.733Z,101872.03
2022-10-07T11:36:03.336Z,101864.22
2022-10-07T11:38:35.137Z,101866.84
2022-10-07T11:41:08.427Z,101855.75
2022-10-07T11:43:45.448Z,101862.53
2022-10-07T11:46:19.622Z,101846.75
2022-10-07T11:48:50.892Z,101844.47
2022-10-07T11:51:25.141Z,101841.22
2022-10-07T11:53:59.535Z,101832.88
2022-10-07T11:56:29.164Z,101824.03
2022-10-07T11:59:00.819Z,101815.34
2022-10-07T12:01:51.343Z,101816.91
2022-10-07T12:04:38.177Z,101811.00
2022-10-07T12:07:41.516Z,101805.13
2022-10-07T12:10:25.805Z,101797.16
2022-10-07T12:12:55.992Z,101789.53
2022-10-07T12:15:29.965Z,101782.56
2022-10-07T12:18:25.420Z,101786.91
2022-10-07T12:21:09.839Z,101783.59
2022-10-07T12:23:42.574Z,101779.44
2022-10-07T12:26:53.898Z,101764.53
2022-10-07T12:29:30.403Z,101767.13
2022-10-07T12:31:59.857Z,101765.00
2022-10-07T12:34:41.155Z,101757.19
2022-10-07T12:37:45.455Z,101761.91
2022-10-07T12:40:18.920Z,101746.78
2022-10-07T12:42:57.589Z,101736.00
2022-10-07T12:45:28.721Z,101735.81
2022-10-07T12:48:02.040Z,101733.53
2022-10-07T12:50:31.772Z,101727.81
2022-10-07T12:53:03.637Z,101720.88
2022-10-07T12:55:36.898Z,101717.56
2022-10-07T12:58:41.142Z,101713.22
2022-10-07T13:01:23.501Z,101705.72
2022-10-07T13:04:18.837Z,101697.19
2022-10-07T13:07:24.604Z,101701.56
2022-10-07T13:10:24.424Z,101690.97
2022-10-07T13:12:54.989Z,101679.66
2022-10-07T13:15:32.123Z,101682.09
2022-10-07T13:18:10.918Z,101679.47
2022-10-07T13:20:57.782Z,101672.88
2022-10-07T13:23:29.544Z,101677.91
2022-10-07T13:26:00.341Z,101669.78
2022-10-07T13:28:36.964Z,101667.00
2022-10-07T13:31:19.755Z,101656.22
2022-10-07T13:33:48.310Z,101659.09
2022-10-07T13:36:20.581Z,101649.81
2022-10-07T13:38:50.360Z,101651.03
2022-10-07T13:41:27.435Z,101648.09
2022-10-07T13:43:59.699Z,101640.31
2022-10-07T13:46:31.177Z,101632.47
2022-10-07T13:49:00.309Z,101629.22
2022-10-07T13:51:35.406Z,101630.09
2022-10-07T13:54:06.804Z,101618.78
2022-10-07T13:56:38.814Z,101620.19
2022-10-07T13:59:12.347Z,101611.88
2022-10-07T14:01:41.076Z,101614.66
2022-10-07T14:04:20.242Z,101608.25
2022-10-07T14:06:53.742Z,101610.47
2022-10-07T14:09:26.295Z,101609.97
2022-10-07T14:11:57.888Z,101597.47
2022-10-07T14:14:29.240Z,101602.34
2022-10-07T14:17:00.247Z,101596.97
2022-10-07T14:19:33.042Z,101599.03
2022-10-07T14:22:06.413Z,101589.16
2022-10-07T14:24:34.436Z,101586.03
2022-10-07T14:27:02.709Z,101579.78
2022-10-07T14:29:38.713Z,101588.13
2022-10-07T14:32:35.865Z,101578.44
2022-10-07T14:35:20.313Z,101576.16
2022-10-07T14:37:50.389Z,101570.13
2022-10-07T14:40:20.799Z,101566.63
2022-10-07T14:42:48.968Z,101553.28
2022-10-07T14:45:18.829Z,101565.25
2022-10-07T14:47:47.044Z,101558.50
2022-10-07T14:50:14.944Z,101557.78
2022-10-07T14:52:46.926Z,101553.28
2022-10-07T14:55:20.037Z,101546.38
2022-10-07T14:57:48.102Z,101547.56
2022-10-07T15:00:20.096Z,101526.41
2022-10-07T15:02:50.190Z,101538.03
2022-10-07T15:05:18.930Z,101530.75
2022-10-07T15:07:47.249Z,101524.69
2022-10-07T15:10:19.336Z,101528.31
2022-10-07T15:12:48.178Z,101519.97
2022-10-07T15:15:16.701Z,101520.84
2022-10-07T15:17:44.890Z,101522.94
2022-10-07T15:20:14.960Z,101521.22
2022-10-07T15:22:43.508Z,101511.66
2022-10-07T15:25:12.937Z,101509.09
2022-10-07T15:27:42.483Z,101508.38
2022-10-07T15:30:11.829Z,101502.47
2022-10-07T15:32:40.021Z,101503.88
2022-10-07T15:35:08.976Z,101499.38
2022-10-07T15:37:36.838Z,101498.00
2022-10-07T15:40:06.602Z,101496.41
2022-10-07T15:42:34.507Z,101491.22
2022-10-07T15:45:03.658Z,101493.13
2022-10-07T15:47:33.294Z,101488.09
2022-10-07T15:50:01.235Z,101488.44
2022-10-07T15:52:29.099Z,101477.72
2022-10-07T15:54:57.087Z,101480.81
2022-10-07T15:57:25.204Z,101476.63
2022-10-07T15:59:54.738Z,101468.69
2022-10-07T16:02:24.785Z,101472.66
2022-10-07T16:04:52.901Z,101468.69
2022-10-07T16:07:20.992Z,101475.41
2022-10-07T16:09:48.753Z,101470.19
2022-10-07T16:12:16.545Z,101465.16
2022-10-07T16:14:44.329Z,101464.47
2022-10-07T16:17:13.095Z,101459.28
2022-10-07T16:19:42.233Z,101463.09
2022-10-07T16:22:09.970Z,101460.13
2022-10-07T16:24:39.659Z,101450.25
2022-10-07T16:27:07.721Z,101448.84
2022-10-07T16:29:54.324Z,101448.34
2022-10-07T16:32:22.529Z,101450.72
2022-10-07T16:34:52.656Z,101450.91
2022-10-07T16:37:20.484Z,101450.72
2022-10-07T16:39:48.252Z,101442.91
2022-10-07T16:42:16.104Z,101443.41
2022-10-07T16:44:46.289Z,101440.28
2022-10-07T16:47:17.849Z,101445.47
2022-10-07T16:49:46.115Z,101440.44
2022-10-07T16:52:15.986Z,101445.28
2022-10-07T16:54:43.939Z,101442.28
2022-10-07T16:57:11.753Z,101441.91
2022-10-07T16:59:39.597Z,101445.16
2022-10-07T17:02:07.737Z,101444.81
2022-10-07T17:04:35.801Z,101437.00
2022-10-07T17:07:05.962Z,101438.53
2022-10-07T17:09:35.194Z,101436.09
2022-10-07T17:12:03.107Z,101446.97
2022-10-07T17:14:32.975Z,101444.69
2022-10-07T17:17:01.563Z,101444.31
2022-10-07T17:19:29.838Z,101446.53
2022-10-07T17:21:59.553Z,101447.91
2022-10-07T17:24:27.952Z,101443.72
2022-10-07T17:26:57.287Z,101441.28
2022-10-07T17:29:26.345Z,101439.00
2022-10-07T17:31:55.171Z,101435.88
2022-10-07T17:34:27.074Z,101438.25
2022-10-07T17:36:57.791Z,101439.91
2022-10-07T17:39:25.685Z,101430.19
2022-10-07T17:41:53.601Z,101444.66
2022-10-07T17:44:22.840Z,101448.78
2022-10-07T17:46:50.929Z,101440.44
2022-10-07T17:49:18.821Z,101448.50
2022-10-07T17:51:46.617Z,101449.28
2022-10-07T17:54:15.069Z,101451.66
2022-10-07T17:56:45.202Z,101445.91
2022-10-07T17:59:13.145Z,101444.78
2022-10-07T18:01:42.611Z,101449.91
2022-10-07T18:04:15.047Z,101448.81
2022-10-07T18:06:43.874Z,101446.97
2022-10-07T18:09:15.065Z,101455.56
2022-10-07T18:12:00.806Z,101442.69
2022-10-07T18:14:49.802Z,101452.63
2022-10-07T18:17:21.950Z,101458.59
2022-10-07T18:19:49.775Z,101449.06
2022-10-07T18:22:17.721Z,101451.41
2022-10-07T18:24:46.075Z,101447.22
2022-10-07T18:27:14.093Z,101442.19
2022-10-07T18:29:41.935Z,101442.75
2022-10-07T18:32:10.391Z,101438.59
2022-10-07T18:34:39.624Z,101441.66
2022-10-07T18:37:07.477Z,101441.25
2022-10-07T18:39:35.230Z,101437.91
2022-10-07T18:42:04.426Z,101434.59
2022-10-07T18:44:32.538Z,101433.31
2022-10-07T18:47:02.268Z,101430.00
2022-10-07T18:49:30.114Z,101430.44
2022-10-07T18:51:59.346Z,101433.38
2022-10-07T18:54:27.232Z,101432.03
2022-10-07T18:56:57.268Z,101435.13
2022-10-07T18:59:25.111Z,101440.06
2022-10-07T19:01:53.099Z,101435.88
2022-10-07T19:04:21.468Z,101438.06
2022-10-07T19:06:49.598Z,101441.22
2022-10-07T19:09:20.768Z,101436.78
2022-10-07T19:11:49.062Z,101431.84
2022-10-07T19:14:16.291Z,101430.41
2022-10-07T19:16:45.735Z,101428.94
2022-10-07T19:19:17.038Z,101428.53
2022-10-07T19:21:47.420Z,101432.59
2022-10-07T19:24:16.477Z,101426.97
2022-10-07T19:26:48.401Z,101442.94
2022-10-07T19:29:18.021Z,101432.78
2022-10-07T19:31:48.479Z,101437.72
2022-10-07T19:34:18.566Z,101440.06
2022-10-07T19:36:47.301Z,101436.00
2022-10-07T19:39:16.532Z,101436.41
2022-10-07T19:41:46.033Z,101430.31
2022-10-07T19:44:14.154Z,101433.50
2022-10-07T19:46:42.165Z,101429.31
2022-10-07T19:49:10.635Z,101436.84
2022-10-07T19:51:38.891Z,101438.13
2022-10-07T19:54:09.858Z,101438.31
2022-10-07T19:56:38.537Z,101443.06
2022-10-07T19:59:09.503Z,101438.56
2022-10-07T20:01:51.232Z,101440.59
2022-10-07T20:04:21.082Z,101446.41
2022-10-07T20:06:49.698Z,101438.56
2022-10-07T20:09:19.323Z,101445.94
2022-10-07T20:11:47.733Z,101439.00
2022-10-07T20:14:17.075Z,101439.88
2022-10-07T20:16:45.061Z,101437.53
2022-10-07T20:19:16.744Z,101440.28
2022-10-07T20:21:44.536Z,101432.47
2022-10-07T20:24:15.409Z,101436.25
2022-10-07T20:26:44.333Z,101438.41
2022-10-07T20:29:13.883Z,101449.72
2022-10-07T20:31:44.083Z,101445.22
2022-10-07T20:34:15.952Z,101456.50
2022-10-07T20:36:44.161Z,101454.31
2022-10-07T20:39:33.605Z,101453.16
2022-10-07T20:42:19.138Z,101446.31
2022-10-07T20:44:47.706Z,101448.38
2022-10-07T20:47:20.619Z,101449.06
2022-10-07T20:49:50.936Z,101453.00
2022-10-07T20:52:20.406Z,101451.38
2022-10-07T20:54:49.205Z,101451.53
2022-10-07T20:57:18.684Z,101454.41
2022-10-07T20:59:47.051Z,101448.34
2022-10-07T21:02:18.830Z,101447.47
2022-10-07T21:04:47.997Z,101454.53
2022-10-07T21:07:17.243Z,101444.56
2022-10-07T21:09:45.527Z,101443.81
2022-10-07T21:12:15.759Z,101449.53
2022-10-07T21:14:44.282Z,101446.22
2022-10-07T21:17:13.257Z,101439.09
2022-10-07T21:19:43.848Z,101446.47
2022-10-07T21:22:11.714Z,101433.16
2022-10-07T21:24:39.551Z,101436.94
2022-10-07T21:27:08.528Z,101432.28
2022-10-07T21:29:40.740Z,101425.31
2022-10-07T21:32:09.446Z,101429.06
2022-10-07T21:34:40.210Z,101426.31
2022-10-07T21:37:09.624Z,101425.44
2022-10-07T21:39:38.127Z,101419.38
2022-10-07T21:42:06.153Z,101418.50
2022-10-07T21:44:34.817Z,101419.50
2022-10-07T21:47:04.807Z,101408.66
2022-10-07T21:49:34.352Z,101412.41
2022-10-07T21:52:02.301Z,101402.44
2022-10-07T21:54:31.461Z,101406.91
2022-10-07T21:56:59.355Z,101406.34
2022-10-07T21:59:27.142Z,101403.72
2022-10-07T22:01:55.081Z,101397.47
2022-10-07T22:04:22.949Z,101402.28
2022-10-07T22:07:08.129Z,101399.53
2022-10-07T22:09:40.137Z,101402.41
2022-10-07T22:12:10.447Z,101396.28
2022-10-07T22:14:39.538Z,101396.28
2022-10-07T22:17:07.430Z,101391.81
2022-10-07T22:19:35.275Z,101390.06
2022-10-07T22:22:03.276Z,101387.47
2022-10-07T22:24:31.811Z,101385.72
2022-10-07T22:27:01.871Z,101389.34
2022-10-07T22:29:29.702Z,101383.25
2022-10-07T22:31:57.961Z,101377.75
2022-10-07T22:34:43.492Z,101372.38
2022-10-07T22:37:11.392Z,101380.75
2022-10-07T22:39:42.156Z,101383.50
2022-10-07T22:42:11.318Z,101375.28
2022-10-07T22:44:39.072Z,101374.41
2022-10-07T22:47:06.993Z,101377.16
2022-10-07T22:49:34.770Z,101370.94
2022-10-07T22:52:04.825Z,101375.44
2022-10-07T22:54:32.603Z,101373.69
2022-10-07T22:57:00.516Z,101374.56
2022-10-07T22:59:29.780Z,101379.88
2022-10-07T23:01:57.544Z,101367.31
2022-10-07T23:04:26.117Z,101376.44
2022-10-07T23:06:53.881Z,101368.31
2022-10-07T23:09:24.978Z,101372.94
2022-10-07T23:11:52.747Z,101371.19
2022-10-07T23:14:20.587Z,101361.22
2022-10-07T23:16:52.488Z,101372.22
2022-10-07T23:19:20.346Z,101370.03
2022-10-07T23:21:48.693Z,101365.53
2022-10-07T23:24:16.628Z,101362.03
2022-10-07T23:26:45.816Z,101360.47
2022-10-07T23:29:14.319Z,101356.22
2022-10-07T23:31:42.132Z,101360.28
2022-10-07T23:34:12.657Z,101367.78
2022-10-07T23:36:40.816Z,101358.22
2022-10-07T23:39:08.655Z,101355.84
2022-10-07T23:41:38.854Z,101356.13
2022-10-07T23:44:06.900Z,101355.63
2022-10-07T23:46:36.304Z,101355.88
2022-10-07T23:49:04.863Z,101357.19
2022-10-07T23:51:34.231Z,101361.06
2022-10-07T23:54:03.541Z,101354.97
2022-10-07T23:56:32.262Z,101354.50
2022-10-07T23:59:00.537Z,101342.94
